Time;durP1;ratioP1;P1;durP2;ratioP2;P2;SDS_P1;SDS_P2;PMS_P1;PMS_P2;Temp;Humidity;BMP_temperature;BMP_pressure;BME280_temperature;BME280_humidity;BME280_pressure;Samples;Min_cycle;Max_cycle;Signal;HPM_P1;HPM_P2
2022/10/03 00:00:41;;;;;;;;;50.75;44.25;;;;;;;;5058154;28;47459;-78
2022/10/03 00:03:18;;;;;;;;;57.50;46.75;;;;;;;;5058363;28;45292;-79
2022/10/03 00:06:02;;;;;;;;;52.25;44.00;;;;;;;;5076811;28;45239;-79
2022/10/03 00:08:30;;;;;;;;;57.25;46.50;;;;;;;;5060105;28;45455;-80
2022/10/03 00:10:59;;;;;;;;;53.75;44.75;;;;;;;;5058848;28;47110;-78
2022/10/03 00:13:42;;;;;;;;;47.25;41.25;;;;;;;;5078117;28;45410;-78
2022/10/03 00:16:14;;;;;;;;;50.75;43.50;;;;;;;;5062476;28;45354;-78
2022/10/03 00:18:57;;;;;;;;;38.25;35.25;;;;;;;;5081234;28;45396;-77
2022/10/03 00:21:28;;;;;;;;;41.50;37.00;;;;;;;;5080125;28;45465;-77
2022/10/03 00:24:07;;;;;;;;;39.25;35.25;;;;;;;;5061484;28;45554;-77
2022/10/03 00:26:45;;;;;;;;;37.00;34.00;;;;;;;;5080230;28;45275;-80
2022/10/03 00:29:28;;;;;;;;;31.00;30.75;;;;;;;;5083165;28;45271;-78
2022/10/03 00:32:06;;;;;;;;;38.00;33.75;;;;;;;;5081149;28;45437;-79
2022/10/03 00:34:33;;;;;;;;;31.00;30.75;;;;;;;;5081338;28;45469;-77
2022/10/03 00:37:08;;;;;;;;;36.50;32.50;;;;;;;;5081358;28;45389;-78
2022/10/03 00:39:36;;;;;;;;;31.00;30.75;;;;;;;;5081887;28;45266;-78
2022/10/03 00:42:01;;;;;;;;;31.75;31.00;;;;;;;;5063813;28;48109;-78
2022/10/03 00:44:36;;;;;;;;;28.75;28.75;;;;;;;;5080356;28;45500;-79
2022/10/03 00:47:19;;;;;;;;;27.00;27.00;;;;;;;;5081152;28;45450;-79
2022/10/03 00:50:03;;;;;;;;;26.25;26.25;;;;;;;;5081620;28;45173;-80
2022/10/03 00:52:37;;;;;;;;;26.75;26.75;;;;;;;;5081410;28;45463;-81
2022/10/03 00:55:13;;;;;;;;;27.75;27.75;;;;;;;;5080686;28;45363;-81
2022/10/03 00:57:47;;;;;;;;;23.25;23.25;;;;;;;;5062153;28;45360;-80
2022/10/03 01:00:13;;;;;;;;;23.50;23.50;;;;;;;;5081240;28;45600;-79
2022/10/03 01:02:45;;;;;;;;;22.50;22.50;;;;;;;;5062602;28;48425;-79
2022/10/03 01:05:25;;;;;;;;;19.75;19.75;;;;;;;;5080804;28;45445;-80
2022/10/03 01:08:09;;;;;;;;;16.00;15.00;;;;;;;;5062324;28;45343;-79
2022/10/03 01:11:00;;;;;;;;;13.25;12.50;;;;;;;;5081388;28;45397;-78
2022/10/03 01:13:45;;;;;;;;;18.50;18.50;;;;;;;;5080478;28;45672;-80
2022/10/03 01:16:36;;;;;;;;;17.00;17.00;;;;;;;;5079999;28;45563;-79
2022/10/03 01:19:26;;;;;;;;;16.25;16.25;;;;;;;;5054405;28;45532;-79
2022/10/03 01:21:57;;;;;;;;;15.00;15.00;;;;;;;;5094680;28;45394;-80
2022/10/03 01:24:41;;;;;;;;;17.00;17.00;;;;;;;;5079645;28;46556;-77
2022/10/03 01:27:10;;;;;;;;;16.00;16.00;;;;;;;;5079074;28;45291;-79
2022/10/03 01:32:25;;;;;;;;;15.75;15.25;;;;;;;;5079067;28;45291;-79
2022/10/03 01:34:56;;;;;;;;;18.25;18.25;;;;;;;;5079528;28;46559;-79
2022/10/03 01:37:30;;;;;;;;;18.00;18.00;;;;;;;;5078909;28;45367;-80
2022/10/03 01:40:04;;;;;;;;;21.75;21.25;;;;;;;;5069190;28;45261;-78
2022/10/03 01:42:46;;;;;;;;;17.75;17.75;;;;;;;;5072979;28;45244;-77
2022/10/03 01:45:14;;;;;;;;;18.25;18.25;;;;;;;;5078853;28;46105;-79
2022/10/03 01:47:40;;;;;;;;;20.25;19.50;;;;;;;;5062718;28;45413;-77
2022/10/03 01:50:32;;;;;;;;;18.25;18.25;;;;;;;;5063935;28;45342;-78
2022/10/03 01:53:07;;;;;;;;;17.00;17.00;;;;;;;;5054286;28;45264;-78
2022/10/03 01:55:44;;;;;;;;;20.00;20.00;;;;;;;;5077502;28;45397;-78
2022/10/03 01:58:25;;;;;;;;;16.25;16.25;;;;;;;;5077620;28;45348;-79
2022/10/03 02:01:00;;;;;;;;;18.50;17.50;;;;;;;;5077799;28;45275;-78
2022/10/03 02:03:51;;;;;;;;;25.00;24.00;;;;;;;;5078118;28;45422;-79
2022/10/03 02:06:43;;;;;;;;;20.00;20.00;;;;;;;;5036979;28;48480;-77
2022/10/03 02:09:14;;;;;;;;;27.00;27.00;;;;;;;;5077361;27;45466;-80
2022/10/03 02:11:55;;;;;;;;;32.00;31.50;;;;;;;;5077735;28;45383;-78
2022/10/03 02:14:34;;;;;;;;;33.00;31.50;;;;;;;;5059292;28;45397;-78
2022/10/03 02:17:13;;;;;;;;;33.75;31.75;;;;;;;;5077816;28;45441;-77
2022/10/03 02:19:57;;;;;;;;;37.00;33.75;;;;;;;;5078461;28;45203;-80
2022/10/03 02:22:55;;;;;;;;;31.50;29.50;;;;;;;;5078072;28;45304;-78
2022/10/03 02:25:24;;;;;;;;;39.50;35.50;;;;;;;;5026893;28;45419;-80
2022/10/03 02:28:04;;;;;;;;;37.00;33.50;;;;;;;;5078596;28;45514;-79
2022/10/03 02:30:48;;;;;;;;;36.25;34.00;;;;;;;;5078628;28;45404;-78
2022/10/03 02:33:32;;;;;;;;;40.75;37.50;;;;;;;;5077721;28;45185;-78
2022/10/03 02:36:17;;;;;;;;;46.50;40.50;;;;;;;;5078664;28;45284;-78
2022/10/03 02:38:42;;;;;;;;;46.25;38.25;;;;;;;;5078173;28;45528;-79
2022/10/03 02:41:12;;;;;;;;;49.00;41.75;;;;;;;;5060629;28;45363;-78
2022/10/03 02:43:56;;;;;;;;;45.50;38.50;;;;;;;;5082979;28;45429;-78
2022/10/03 02:46:41;;;;;;;;;44.25;39.00;;;;;;;;5078250;28;46085;-79
2022/10/03 02:49:25;;;;;;;;;39.25;36.00;;;;;;;;5077582;28;45651;-80
2022/10/03 02:51:50;;;;;;;;;39.25;36.25;;;;;;;;5078169;28;45420;-79
2022/10/03 02:54:28;;;;;;;;;42.25;37.00;;;;;;;;5078085;28;45428;-79
2022/10/03 02:56:53;;;;;;;;;35.00;33.50;;;;;;;;5079237;28;45425;-80
2022/10/03 02:59:18;;;;;;;;;26.00;26.00;;;;;;;;5080311;28;46615;-80
2022/10/03 03:01:49;;;;;;;;;29.75;29.00;;;;;;;;5083175;27;45534;-78
2022/10/03 03:04:36;;;;;;;;;32.00;31.00;;;;;;;;5071810;28;45386;-79
2022/10/03 03:07:01;;;;;;;;;29.25;29.25;;;;;;;;5091302;27;45259;-81
2022/10/03 03:09:46;;;;;;;;;29.25;29.25;;;;;;;;5083528;28;45523;-79
2022/10/03 03:12:30;;;;;;;;;30.00;30.00;;;;;;;;5062117;28;45297;-79
2022/10/03 03:15:07;;;;;;;;;29.50;29.00;;;;;;;;5059380;28;45342;-77
2022/10/03 03:17:51;;;;;;;;;26.50;26.00;;;;;;;;5079486;28;45337;-78
2022/10/03 03:20:27;;;;;;;;;25.00;25.00;;;;;;;;5079851;28;46188;-79
2022/10/03 03:23:01;;;;;;;;;25.75;25.50;;;;;;;;5080539;28;45429;-78
2022/10/03 03:25:27;;;;;;;;;22.50;22.50;;;;;;;;5063021;28;45391;-79
2022/10/03 03:28:08;;;;;;;;;28.00;28.00;;;;;;;;5082300;28;45442;-81
2022/10/03 03:30:52;;;;;;;;;24.00;22.25;;;;;;;;5081611;28;45205;-79
2022/10/03 03:33:37;;;;;;;;;21.50;21.50;;;;;;;;5084728;28;45277;-80
2022/10/03 03:36:16;;;;;;;;;25.75;25.75;;;;;;;;5082998;27;45485;-79
2022/10/03 03:38:41;;;;;;;;;26.00;26.00;;;;;;;;5083590;28;45426;-78
2022/10/03 03:41:12;;;;;;;;;30.00;30.00;;;;;;;;5080336;28;45513;-79
2022/10/03 03:43:39;;;;;;;;;25.75;25.00;;;;;;;;5077555;28;45369;-78
2022/10/03 03:46:11;;;;;;;;;28.25;26.00;;;;;;;;5064170;28;45481;-77
2022/10/03 03:48:51;;;;;;;;;22.50;22.50;;;;;;;;5082635;28;45287;-77
2022/10/03 03:51:22;;;;;;;;;27.00;26.75;;;;;;;;5087451;28;45430;-77
2022/10/03 03:53:59;;;;;;;;;29.50;28.25;;;;;;;;5068412;28;45326;-78
2022/10/03 03:56:43;;;;;;;;;25.50;24.50;;;;;;;;5085127;28;45490;-78
2022/10/03 03:59:12;;;;;;;;;29.00;28.00;;;;;;;;5084620;28;45393;-77
2022/10/03 04:01:56;;;;;;;;;27.50;27.25;;;;;;;;5085192;28;45449;-78
2022/10/03 04:04:21;;;;;;;;;29.00;29.00;;;;;;;;5087164;28;45489;-78
2022/10/03 04:06:56;;;;;;;;;30.25;30.25;;;;;;;;5075302;28;45229;-78
2022/10/03 04:09:33;;;;;;;;;24.50;24.50;;;;;;;;5089171;28;45392;-78
2022/10/03 04:12:13;;;;;;;;;28.75;28.75;;;;;;;;5096865;28;45250;-77
2022/10/03 04:14:45;;;;;;;;;30.75;30.25;;;;;;;;5075060;28;45215;-75
2022/10/03 04:20:28;;;;;;;;;25.50;25.50;;;;;;;;5086253;28;45334;-78
2022/10/03 04:23:17;;;;;;;;;18.25;18.25;;;;;;;;5064997;28;46119;-77
2022/10/03 04:25:53;;;;;;;;;19.00;18.75;;;;;;;;5087764;27;45360;-77
2022/10/03 04:28:18;;;;;;;;;18.75;17.75;;;;;;;;5086311;28;45379;-78
2022/10/03 04:30:58;;;;;;;;;12.00;12.00;;;;;;;;5065013;28;45430;-77
2022/10/03 04:33:30;;;;;;;;;17.00;17.00;;;;;;;;5083043;28;45330;-77
2022/10/03 04:36:25;;;;;;;;;16.50;15.00;;;;;;;;5064195;28;45288;-79
2022/10/03 04:38:57;;;;;;;;;16.25;15.75;;;;;;;;5082945;28;45331;-77
2022/10/03 04:41:39;;;;;;;;;18.75;18.75;;;;;;;;5082158;28;45401;-80
2022/10/03 04:44:18;;;;;;;;;17.50;17.50;;;;;;;;5084989;28;46145;-78
2022/10/03 04:46:51;;;;;;;;;20.50;18.00;;;;;;;;5090252;28;45380;-79
2022/10/03 04:49:26;;;;;;;;;16.25;16.25;;;;;;;;5082714;27;45399;-78
2022/10/03 04:52:17;;;;;;;;;15.00;15.00;;;;;;;;5082686;28;45493;-78
2022/10/03 04:54:47;;;;;;;;;13.25;13.25;;;;;;;;5079146;27;45196;-79
2022/10/03 04:57:24;;;;;;;;;18.50;18.50;;;;;;;;5082814;28;45443;-78
2022/10/03 05:00:10;;;;;;;;;19.25;19.25;;;;;;;;5083046;28;45335;-79
2022/10/03 05:02:54;;;;;;;;;19.25;19.25;;;;;;;;5032324;28;45368;-79
2022/10/03 05:05:31;;;;;;;;;15.50;15.50;;;;;;;;5081145;28;45791;-77
2022/10/03 05:08:03;;;;;;;;;18.00;17.25;;;;;;;;5078577;28;45297;-77
2022/10/03 05:10:38;;;;;;;;;20.25;19.50;;;;;;;;5078626;28;45538;-78
2022/10/03 05:13:10;;;;;;;;;15.50;15.50;;;;;;;;5078905;28;45605;-77
2022/10/03 05:15:49;;;;;;;;;14.75;14.75;;;;;;;;5078544;28;45353;-78
2022/10/03 05:18:23;;;;;;;;;14.75;14.75;;;;;;;;5079293;28;45286;-79
2022/10/03 05:21:04;;;;;;;;;19.00;19.00;;;;;;;;5061015;28;45426;-79
2022/10/03 05:23:30;;;;;;;;;13.75;13.75;;;;;;;;5079520;28;45219;-78
2022/10/03 05:26:14;;;;;;;;;12.75;12.75;;;;;;;;5079267;28;46032;-79
2022/10/03 05:28:53;;;;;;;;;14.75;14.75;;;;;;;;5079780;28;45273;-79
2022/10/03 05:31:24;;;;;;;;;15.00;15.00;;;;;;;;5079847;28;45441;-79
2022/10/03 05:34:00;;;;;;;;;14.50;14.25;;;;;;;;5081015;28;45510;-80
2022/10/03 05:36:48;;;;;;;;;8.00;8.00;;;;;;;;5081067;28;46133;-81
2022/10/03 05:39:23;;;;;;;;;12.50;12.50;;;;;;;;5079311;28;45421;-78
2022/10/03 05:41:50;;;;;;;;;13.50;13.50;;;;;;;;5079910;28;45779;-79
2022/10/03 05:44:21;;;;;;;;;15.25;15.25;;;;;;;;5079549;28;45512;-79
2022/10/03 05:46:46;;;;;;;;;16.00;16.00;;;;;;;;5078777;28;45867;-78
2022/10/03 05:49:39;;;;;;;;;20.75;19.75;;;;;;;;5078885;28;45924;-78
2022/10/03 05:52:24;;;;;;;;;14.75;14.75;;;;;;;;5076311;28;45620;-79
2022/10/03 05:55:00;;;;;;;;;17.50;17.50;;;;;;;;5050426;28;45568;-79
2022/10/03 05:57:44;;;;;;;;;16.25;16.25;;;;;;;;5078090;28;46740;-78
2022/10/03 06:00:15;;;;;;;;;15.75;14.50;;;;;;;;5083719;28;45366;-78
2022/10/03 06:02:49;;;;;;;;;17.75;17.75;;;;;;;;5087312;28;45250;-78
2022/10/03 06:05:23;;;;;;;;;19.75;18.75;;;;;;;;5081945;28;45307;-79
2022/10/03 06:08:01;;;;;;;;;17.00;17.00;;;;;;;;5077433;28;45591;-78
2022/10/03 06:10:42;;;;;;;;;17.75;17.75;;;;;;;;5078852;28;45216;-78
2022/10/03 06:13:15;;;;;;;;;16.50;16.50;;;;;;;;5078638;28;45310;-79
2022/10/03 06:15:53;;;;;;;;;21.25;21.25;;;;;;;;5078957;28;45474;-77
2022/10/03 06:18:36;;;;;;;;;16.50;16.50;;;;;;;;5078430;28;45849;-76
2022/10/03 06:21:11;;;;;;;;;16.50;16.50;;;;;;;;5079014;28;45374;-78
2022/10/03 06:23:42;;;;;;;;;19.75;17.75;;;;;;;;5081395;28;45357;-78
2022/10/03 06:26:29;;;;;;;;;18.75;17.50;;;;;;;;5081759;28;45280;-77
2022/10/03 06:29:13;;;;;;;;;17.75;17.75;;;;;;;;5084858;28;45300;-79
2022/10/03 06:31:41;;;;;;;;;13.00;13.00;;;;;;;;5078648;28;45321;-77
2022/10/03 06:34:30;;;;;;;;;15.75;15.75;;;;;;;;5078025;27;45347;-78
2022/10/03 06:36:55;;;;;;;;;13.25;13.25;;;;;;;;5070403;27;45334;-78
2022/10/03 06:39:43;;;;;;;;;13.25;13.25;;;;;;;;5078760;28;46223;-78
2022/10/03 06:42:14;;;;;;;;;13.50;12.75;;;;;;;;5079033;28;45414;-79
2022/10/03 06:45:01;;;;;;;;;11.50;11.50;;;;;;;;5085639;28;45281;-79
2022/10/03 06:47:26;;;;;;;;;15.75;15.75;;;;;;;;5078729;28;45216;-79
2022/10/03 06:50:04;;;;;;;;;14.00;14.00;;;;;;;;5077452;28;45414;-79
2022/10/03 06:52:44;;;;;;;;;11.25;11.25;;;;;;;;5077540;28;45206;-79
2022/10/03 06:55:20;;;;;;;;;12.25;12.25;;;;;;;;5077878;28;45276;-78
2022/10/03 06:57:45;;;;;;;;;13.00;13.00;;;;;;;;5079466;28;45254;-79
2022/10/03 07:00:11;;;;;;;;;14.25;14.25;;;;;;;;5060565;28;47255;-78
2022/10/03 07:02:36;;;;;;;;;14.50;13.75;;;;;;;;5077984;28;45254;-80
2022/10/03 07:05:01;;;;;;;;;14.25;14.25;;;;;;;;5078441;28;45540;-78
2022/10/03 07:07:31;;;;;;;;;11.25;11.25;;;;;;;;5080603;28;45327;-79
2022/10/03 07:10:11;;;;;;;;;12.25;12.25;;;;;;;;5081346;28;45345;-78
2022/10/03 07:13:11;;;;;;;;;13.00;13.00;;;;;;;;5080608;28;45680;-78
2022/10/03 07:15:56;;;;;;;;;22.25;22.25;;;;;;;;5015725;28;45379;-78
2022/10/03 07:18:47;;;;;;;;;12.50;12.50;;;;;;;;5073355;28;45567;-79
2022/10/03 07:21:38;;;;;;;;;16.50;16.50;;;;;;;;5053928;28;46298;-78
2022/10/03 07:24:24;;;;;;;;;15.25;15.25;;;;;;;;5072152;28;45401;-77
2022/10/03 07:27:12;;;;;;;;;18.00;17.50;;;;;;;;5076478;28;45428;-78
2022/10/03 07:29:52;;;;;;;;;13.75;12.25;;;;;;;;5076527;28;45403;-79
2022/10/03 07:32:26;;;;;;;;;15.00;14.75;;;;;;;;5076431;28;45539;-78
2022/10/03 07:35:18;;;;;;;;;15.25;15.25;;;;;;;;5058632;28;45429;-79
2022/10/03 07:40:57;;;;;;;;;14.00;14.00;;;;;;;;5075912;28;45235;-78
2022/10/03 07:43:41;;;;;;;;;14.75;14.75;;;;;;;;5020674;28;46292;-78
2022/10/03 07:46:12;;;;;;;;;15.50;15.50;;;;;;;;5079884;27;45204;-78
2022/10/03 07:48:50;;;;;;;;;22.50;21.50;;;;;;;;5080646;28;45280;-78
2022/10/03 07:51:22;;;;;;;;;17.00;17.00;;;;;;;;5058856;28;45586;-79
2022/10/03 07:54:05;;;;;;;;;18.00;17.25;;;;;;;;5078811;28;45618;-77
2022/10/03 07:56:39;;;;;;;;;15.75;15.75;;;;;;;;5076030;28;45379;-78
2022/10/03 07:59:23;;;;;;;;;14.75;13.75;;;;;;;;5077719;28;45350;-77
2022/10/03 08:02:07;;;;;;;;;17.00;17.00;;;;;;;;5076752;28;45528;-79
2022/10/03 08:04:51;;;;;;;;;14.75;14.75;;;;;;;;5075864;28;46194;-78
2022/10/03 08:07:35;;;;;;;;;19.50;18.00;;;;;;;;5077025;28;45251;-79
2022/10/03 08:10:12;;;;;;;;;17.50;17.50;;;;;;;;5070146;28;45324;-76
2022/10/03 08:12:46;;;;;;;;;17.75;17.75;;;;;;;;5077330;28;45291;-79
2022/10/03 08:15:24;;;;;;;;;17.00;17.00;;;;;;;;5057672;28;47310;-77
2022/10/03 08:18:08;;;;;;;;;18.50;18.50;;;;;;;;5075784;28;45378;-80
2022/10/03 08:21:06;;;;;;;;;15.00;15.00;;;;;;;;5075645;27;45304;-78
2022/10/03 08:23:59;;;;;;;;;18.25;18.25;;;;;;;;5027035;28;45369;-78
2022/10/03 08:26:24;;;;;;;;;18.50;18.50;;;;;;;;5058646;28;46243;-80
2022/10/03 08:28:52;;;;;;;;;14.00;14.00;;;;;;;;5077320;28;45291;-80
2022/10/03 08:31:43;;;;;;;;;18.25;18.25;;;;;;;;5077665;28;45310;-81
2022/10/03 08:34:27;;;;;;;;;18.00;18.00;;;;;;;;5076946;28;45318;-79
2022/10/03 08:36:52;;;;;;;;;17.50;17.50;;;;;;;;5078317;28;45409;-78
2022/10/03 08:39:30;;;;;;;;;16.50;16.50;;;;;;;;5079117;28;45212;-78
2022/10/03 08:42:13;;;;;;;;;21.00;21.00;;;;;;;;5079186;28;45289;-78
2022/10/03 08:44:57;;;;;;;;;17.25;16.25;;;;;;;;5079340;28;45269;-79
2022/10/03 08:47:34;;;;;;;;;16.00;16.00;;;;;;;;5081744;28;46194;-77
2022/10/03 08:50:03;;;;;;;;;21.25;21.25;;;;;;;;5063445;28;45477;-79
2022/10/03 08:52:40;;;;;;;;;22.00;22.00;;;;;;;;5079737;28;45308;-80
2022/10/03 08:55:21;;;;;;;;;17.25;17.25;;;;;;;;5079109;28;45589;-79
2022/10/03 08:57:55;;;;;;;;;22.75;22.50;;;;;;;;5081070;28;46277;-78
2022/10/03 09:00:44;;;;;;;;;30.75;29.00;;;;;;;;5088729;28;45313;-77
2022/10/03 09:03:09;;;;;;;;;23.75;22.00;;;;;;;;5059593;28;45341;-78
2022/10/03 09:05:45;;;;;;;;;17.25;16.25;;;;;;;;5082042;28;45400;-79
2022/10/03 09:08:20;;;;;;;;;20.25;20.25;;;;;;;;5078757;28;45482;-78
2022/10/03 09:11:03;;;;;;;;;16.75;16.75;;;;;;;;5078565;28;45442;-79
2022/10/03 09:13:47;;;;;;;;;20.25;20.25;;;;;;;;5079026;28;45378;-78
2022/10/03 09:16:30;;;;;;;;;20.00;20.00;;;;;;;;5085846;28;45265;-78
2022/10/03 09:19:06;;;;;;;;;17.75;17.75;;;;;;;;5083983;28;46752;-78
2022/10/03 09:21:37;;;;;;;;;19.75;19.75;;;;;;;;5059901;28;45394;-79
2022/10/03 09:24:05;;;;;;;;;21.50;21.50;;;;;;;;5079041;28;45301;-79
2022/10/03 09:26:49;;;;;;;;;26.00;26.00;;;;;;;;5061654;28;45755;-77
2022/10/03 09:29:20;;;;;;;;;21.00;21.00;;;;;;;;5078910;28;46679;-78
2022/10/03 09:31:51;;;;;;;;;19.75;19.00;;;;;;;;5079372;28;45449;-78
2022/10/03 09:34:20;;;;;;;;;25.25;25.25;;;;;;;;5080519;28;45373;-79
2022/10/03 09:37:04;;;;;;;;;18.50;18.50;;;;;;;;5065845;28;45635;-79
2022/10/03 09:39:29;;;;;;;;;20.50;20.50;;;;;;;;5084937;28;46392;-80
2022/10/03 09:42:08;;;;;;;;;20.75;20.75;;;;;;;;5086631;28;45375;-79
2022/10/03 09:44:58;;;;;;;;;20.75;20.50;;;;;;;;5089674;28;44698;-79
2022/10/03 09:47:45;;;;;;;;;21.25;21.25;;;;;;;;5088907;28;45303;-78
2022/10/03 09:50:29;;;;;;;;;35.25;32.75;;;;;;;;5081341;27;45270;-80
2022/10/03 09:53:23;;;;;;;;;25.75;25.75;;;;;;;;5078900;27;45429;-78
2022/10/03 09:56:07;;;;;;;;;41.00;36.50;;;;;;;;5060822;27;45352;-79
2022/10/03 09:58:39;;;;;;;;;20.75;20.75;;;;;;;;5079562;28;45341;-78
2022/10/03 10:01:14;;;;;;;;;24.75;24.50;;;;;;;;5079335;28;45603;-78
2022/10/03 10:04:02;;;;;;;;;22.00;22.00;;;;;;;;5078460;28;45323;-78
2022/10/03 10:06:47;;;;;;;;;30.00;29.75;;;;;;;;5057201;28;45394;-78
2022/10/03 10:09:21;;;;;;;;;24.75;24.75;;;;;;;;5078298;27;45339;-78
2022/10/03 10:12:02;;;;;;;;;22.00;22.00;;;;;;;;5077741;28;45462;-78
2022/10/03 10:14:39;;;;;;;;;31.75;30.50;;;;;;;;5078456;28;45220;-79
2022/10/03 10:17:25;;;;;;;;;47.25;40.25;;;;;;;;5077805;27;45306;-79
2022/10/03 10:19:50;;;;;;;;;50.75;43.75;;;;;;;;5078016;28;45357;-79
2022/10/03 10:22:16;;;;;;;;;36.25;31.00;;;;;;;;5078294;28;45410;-79
2022/10/03 10:24:59;;;;;;;;;25.75;25.75;;;;;;;;5078167;28;45479;-78
2022/10/03 10:27:31;;;;;;;;;27.00;27.00;;;;;;;;5059389;28;45293;-79
2022/10/03 10:30:15;;;;;;;;;25.75;25.75;;;;;;;;5077791;28;45386;-78
2022/10/03 10:33:05;;;;;;;;;22.00;22.00;;;;;;;;5078033;28;45611;-79
2022/10/03 10:35:50;;;;;;;;;31.75;31.00;;;;;;;;5077763;28;45494;-79
2022/10/03 10:38:25;;;;;;;;;19.00;19.00;;;;;;;;5059484;28;45380;-78
2022/10/03 10:41:09;;;;;;;;;32.50;30.25;;;;;;;;5080043;28;45411;-78
2022/10/03 10:43:34;;;;;;;;;28.25;28.25;;;;;;;;5089663;28;45704;-79
2022/10/03 10:46:11;;;;;;;;;18.00;18.00;;;;;;;;5085403;28;45235;-79
2022/10/03 10:48:48;;;;;;;;;23.75;22.00;;;;;;;;5084418;28;45405;-79
2022/10/03 10:51:14;;;;;;;;;26.25;26.00;;;;;;;;5068654;28;45528;-78
2022/10/03 10:53:57;;;;;;;;;22.50;22.50;;;;;;;;5083465;28;45491;-79
2022/10/03 10:56:41;;;;;;;;;19.50;19.50;;;;;;;;5077281;27;45323;-79
2022/10/03 10:59:30;;;;;;;;;21.00;20.50;;;;;;;;5076783;28;45362;-79
2022/10/03 11:01:55;;;;;;;;;23.25;22.75;;;;;;;;5058877;28;45534;-79
2022/10/03 11:04:26;;;;;;;;;22.00;21.25;;;;;;;;5076654;28;45262;-79
2022/10/03 11:07:10;;;;;;;;;21.75;21.75;;;;;;;;5077591;28;45420;-80
2022/10/03 11:09:54;;;;;;;;;20.25;19.25;;;;;;;;5077066;28;45437;-80
2022/10/03 11:12:22;;;;;;;;;21.25;21.25;;;;;;;;5058162;28;45316;-81
2022/10/03 11:14:50;;;;;;;;;19.00;18.50;;;;;;;;5076946;28;45311;-79
2022/10/03 11:17:30;;;;;;;;;20.25;19.50;;;;;;;;5076472;28;45226;-80
2022/10/03 11:20:20;;;;;;;;;21.25;21.00;;;;;;;;5058337;28;45424;-79
2022/10/03 11:22:46;;;;;;;;;20.00;20.00;;;;;;;;5076578;28;45379;-80
2022/10/03 11:25:30;;;;;;;;;16.50;16.50;;;;;;;;5076071;28;46346;-79
2022/10/03 11:28:15;;;;;;;;;19.25;19.25;;;;;;;;5077447;28;45216;-79
2022/10/03 11:30:59;;;;;;;;;22.75;22.00;;;;;;;;5061709;28;45323;-79
2022/10/03 11:33:43;;;;;;;;;25.00;24.50;;;;;;;;5078187;27;45303;-79
2022/10/03 11:36:25;;;;;;;;;21.50;21.50;;;;;;;;5079407;28;45479;-78
2022/10/03 11:38:50;;;;;;;;;18.75;18.75;;;;;;;;5078356;28;45406;-77
2022/10/03 11:41:18;;;;;;;;;16.50;16.00;;;;;;;;5059036;28;45407;-80
2022/10/03 11:44:03;;;;;;;;;21.25;21.25;;;;;;;;5078097;28;45381;-79
2022/10/03 11:46:47;;;;;;;;;18.00;18.00;;;;;;;;5078132;28;46198;-80
2022/10/03 11:49:12;;;;;;;;;17.00;17.00;;;;;;;;5082592;28;45383;-78
2022/10/03 11:51:53;;;;;;;;;20.40;20.40;;;;;;;;5082537;28;45319;-78
2022/10/03 11:54:27;;;;;;;;;18.75;18.75;;;;;;;;5058009;28;45319;-78
2022/10/03 11:57:15;;;;;;;;;18.75;18.75;;;;;;;;5078855;28;46642;-80
2022/10/03 11:59:48;;;;;;;;;20.25;19.75;;;;;;;;5076811;27;45486;-78
2022/10/03 12:02:21;;;;;;;;;18.25;18.00;;;;;;;;5075806;28;45217;-77
2022/10/03 12:04:54;;;;;;;;;20.25;20.25;;;;;;;;5076798;28;45311;-78
2022/10/03 12:10:38;;;;;;;;;18.00;18.00;;;;;;;;5076487;28;45292;-77
2022/10/03 12:13:08;;;;;;;;;22.50;22.50;;;;;;;;5051061;28;45518;-77
2022/10/03 12:15:37;;;;;;;;;25.50;25.50;;;;;;;;5061167;28;45502;-77
2022/10/03 12:18:08;;;;;;;;;22.25;21.50;;;;;;;;5060986;28;47746;-78
2022/10/03 12:20:53;;;;;;;;;18.25;18.25;;;;;;;;5078779;28;45423;-78
2022/10/03 12:23:18;;;;;;;;;17.00;17.00;;;;;;;;5079271;27;45399;-78
2022/10/03 12:25:44;;;;;;;;;12.25;12.25;;;;;;;;5080059;28;45306;-78
2022/10/03 12:28:14;;;;;;;;;20.75;20.75;;;;;;;;5080012;28;45494;-78
2022/10/03 12:30:54;;;;;;;;;16.75;16.75;;;;;;;;5080198;28;45266;-79
2022/10/03 12:33:20;;;;;;;;;23.75;23.75;;;;;;;;5079368;28;45326;-78
2022/10/03 12:35:52;;;;;;;;;16.00;16.00;;;;;;;;5060938;28;45681;-78
2022/10/03 12:38:32;;;;;;;;;20.50;20.25;;;;;;;;5079821;28;46477;-78
2022/10/03 12:41:01;;;;;;;;;21.25;21.25;;;;;;;;5062552;28;45449;-77
2022/10/03 12:44:04;;;;;;;;;15.00;15.00;;;;;;;;5084106;28;45323;-78
2022/10/03 12:46:50;;;;;;;;;14.75;14.75;;;;;;;;5021199;28;45301;-78
2022/10/03 12:49:26;;;;;;;;;17.25;17.25;;;;;;;;5078252;28;46792;-77
2022/10/03 12:52:03;;;;;;;;;14.75;14.75;;;;;;;;5080247;28;45441;-78
2022/10/03 12:54:42;;;;;;;;;15.50;15.50;;;;;;;;5079269;27;45313;-78
2022/10/03 12:57:10;;;;;;;;;18.00;17.25;;;;;;;;5079677;27;45362;-77
2022/10/03 12:59:58;;;;;;;;;15.00;15.00;;;;;;;;5079437;28;46560;-78
2022/10/03 13:02:23;;;;;;;;;16.00;16.00;;;;;;;;5079277;27;45252;-77
2022/10/03 13:04:54;;;;;;;;;16.75;16.00;;;;;;;;5078713;28;45421;-77
2022/10/03 13:07:26;;;;;;;;;17.00;17.00;;;;;;;;5080069;27;45291;-78
2022/10/03 13:10:17;;;;;;;;;14.25;14.25;;;;;;;;5081030;28;45429;-77
2022/10/03 13:12:52;;;;;;;;;17.25;16.75;;;;;;;;5080331;28;45318;-79
2022/10/03 13:15:18;;;;;;;;;17.50;17.50;;;;;;;;5079088;28;45315;-79
2022/10/03 13:17:46;;;;;;;;;15.75;15.75;;;;;;;;5078422;28;45520;-77
2022/10/03 13:20:12;;;;;;;;;15.50;14.50;;;;;;;;5078019;28;45419;-78
2022/10/03 13:22:37;;;;;;;;;18.50;18.50;;;;;;;;5076659;28;45342;-78
2022/10/03 13:25:23;;;;;;;;;16.25;16.25;;;;;;;;5078850;28;45241;-77
2022/10/03 13:27:50;;;;;;;;;18.50;18.50;;;;;;;;5078943;28;45625;-78
2022/10/03 13:30:18;;;;;;;;;18.25;18.25;;;;;;;;5079486;28;45371;-78
2022/10/03 13:32:48;;;;;;;;;17.00;17.00;;;;;;;;5079490;28;45326;-78
2022/10/03 13:38:09;;;;;;;;;15.50;15.50;;;;;;;;5077983;28;45375;-77
2022/10/03 13:40:37;;;;;;;;;16.75;15.75;;;;;;;;5078171;28;46335;-77
2022/10/03 13:43:08;;;;;;;;;13.75;13.75;;;;;;;;5079732;28;45495;-81
2022/10/03 13:45:38;;;;;;;;;15.00;15.00;;;;;;;;5078320;28;45290;-78
2022/10/03 13:48:06;;;;;;;;;13.75;13.75;;;;;;;;5078417;28;45386;-77
2022/10/03 13:50:44;;;;;;;;;17.50;17.50;;;;;;;;5077688;28;46748;-78
2022/10/03 13:53:39;;;;;;;;;17.00;17.00;;;;;;;;5077333;28;45368;-78
2022/10/03 13:56:23;;;;;;;;;16.00;16.00;;;;;;;;5078253;28;45314;-79
2022/10/03 13:58:56;;;;;;;;;20.75;20.75;;;;;;;;5076986;28;45362;-79
2022/10/03 14:01:37;;;;;;;;;16.00;16.00;;;;;;;;5076775;28;46249;-77
2022/10/03 14:04:14;;;;;;;;;19.00;19.00;;;;;;;;5076591;28;45418;-77
2022/10/03 14:06:39;;;;;;;;;17.25;17.25;;;;;;;;5077166;28;45262;-78
2022/10/03 14:09:13;;;;;;;;;17.00;17.00;;;;;;;;5077760;28;45308;-78
2022/10/03 14:11:51;;;;;;;;;14.50;14.50;;;;;;;;5077302;28;45675;-80
2022/10/03 14:14:26;;;;;;;;;14.25;14.25;;;;;;;;5059170;28;45206;-79
2022/10/03 14:17:12;;;;;;;;;16.25;16.25;;;;;;;;5059063;28;45248;-78
2022/10/03 14:19:52;;;;;;;;;11.75;11.75;;;;;;;;5080704;28;44926;-78
2022/10/03 14:22:26;;;;;;;;;45.75;39.25;;;;;;;;5078703;28;46846;-79
2022/10/03 14:25:13;;;;;;;;;18.50;18.50;;;;;;;;5077172;28;45440;-78
2022/10/03 14:27:41;;;;;;;;;14.75;14.75;;;;;;;;5077253;28;45365;-78
2022/10/03 14:30:10;;;;;;;;;17.75;16.00;;;;;;;;5077174;28;45497;-78
2022/10/03 14:32:38;;;;;;;;;17.50;15.75;;;;;;;;5077101;28;45312;-78
2022/10/03 14:35:14;;;;;;;;;15.00;15.00;;;;;;;;5077127;28;45522;-80
2022/10/03 14:37:39;;;;;;;;;15.25;15.25;;;;;;;;5077623;28;45326;-78
2022/10/03 14:40:16;;;;;;;;;13.50;13.50;;;;;;;;5077744;28;45359;-78
2022/10/03 14:42:41;;;;;;;;;16.50;16.00;;;;;;;;5077034;28;46249;-79
2022/10/03 14:45:10;;;;;;;;;19.00;19.00;;;;;;;;5077011;28;45241;-78
2022/10/03 14:47:38;;;;;;;;;15.50;15.50;;;;;;;;5077875;28;45379;-76
2022/10/03 14:50:05;;;;;;;;;16.00;16.00;;;;;;;;5058014;28;45484;-78
2022/10/03 14:52:30;;;;;;;;;19.50;19.50;;;;;;;;5077160;28;45465;-78
2022/10/03 14:54:58;;;;;;;;;16.50;16.50;;;;;;;;5060359;28;45264;-78
2022/10/03 14:57:30;;;;;;;;;17.00;17.00;;;;;;;;5078505;27;45231;-76
2022/10/03 14:59:57;;;;;;;;;102.00;97.50;;;;;;;;5078086;28;45427;-78
2022/10/03 15:02:35;;;;;;;;;22.25;22.25;;;;;;;;5077950;28;46370;-77
2022/10/03 15:05:05;;;;;;;;;17.00;16.75;;;;;;;;5079345;28;45794;-78
2022/10/03 15:07:33;;;;;;;;;15.00;15.00;;;;;;;;5078364;28;45288;-78
2022/10/03 15:10:00;;;;;;;;;15.00;15.00;;;;;;;;5078076;28;45480;-77
2022/10/03 15:12:30;;;;;;;;;14.75;14.75;;;;;;;;5078276;28;46293;-78
2022/10/03 15:15:04;;;;;;;;;15.50;15.50;;;;;;;;5058501;28;45355;-77
2022/10/03 15:17:31;;;;;;;;;13.50;13.50;;;;;;;;5076648;28;45500;-77
2022/10/03 15:19:58;;;;;;;;;12.75;12.75;;;;;;;;5077484;28;45363;-78
2022/10/03 15:22:24;;;;;;;;;17.00;17.00;;;;;;;;5075831;28;47335;-78
2022/10/03 15:24:51;;;;;;;;;31.50;30.75;;;;;;;;5057660;28;45299;-77